sensor_id;sensor_type;location;lat;lon;timestamp;P1;durP1;ratioP1;P2;durP2;ratioP2
17993;SDS011;9122;48.406;9.984;2022-10-20T00:01:00;9.63;;;7.83;;
17993;SDS011;9122;48.406;9.984;2022-10-20T00:03:45;9.23;;;7.73;;
17993;SDS011;9122;48.406;9.984;2022-10-20T00:06:31;9.90;;;8.07;;
17993;SDS011;9122;48.406;9.984;2022-10-20T00:09:16;8.97;;;8.07;;
17993;SDS011;9122;48.406;9.984;2022-10-20T00:12:00;10.40;;;7.97;;
17993;SDS011;9122;48.406;9.984;2022-10-20T00:14:44;9.30;;;8.30;;
17993;SDS011;9122;48.406;9.984;2022-10-20T00:17:29;9.93;;;8.03;;
17993;SDS011;9122;48.406;9.984;2022-10-20T00:20:13;20.13;;;8.17;;
17993;SDS011;9122;48.406;9.984;2022-10-20T00:22:58;9.50;;;8.37;;
17993;SDS011;9122;48.406;9.984;2022-10-20T00:25:42;8.87;;;7.97;;
17993;SDS011;9122;48.406;9.984;2022-10-20T00:28:27;9.83;;;8.37;;
17993;SDS011;9122;48.406;9.984;2022-10-20T00:31:11;9.53;;;8.53;;
17993;SDS011;9122;48.406;9.984;2022-10-20T00:33:57;9.83;;;8.03;;
17993;SDS011;9122;48.406;9.984;2022-10-20T00:36:41;11.03;;;9.33;;
17993;SDS011;9122;48.406;9.984;2022-10-20T00:39:26;9.97;;;9.03;;
17993;SDS011;9122;48.406;9.984;2022-10-20T00:42:14;10.63;;;9.20;;
17993;SDS011;9122;48.406;9.984;2022-10-20T00:45:00;11.13;;;8.60;;
17993;SDS011;9122;48.406;9.984;2022-10-20T00:48:19;11.20;;;9.20;;
17993;SDS011;9122;48.406;9.984;2022-10-20T00:50:57;10.10;;;8.47;;
17993;SDS011;9122;48.406;9.984;2022-10-20T00:53:42;12.77;;;10.30;;
17993;SDS011;9122;48.406;9.984;2022-10-20T00:56:28;12.20;;;11.00;;
17993;SDS011;9122;48.406;9.984;2022-10-20T00:59:12;11.63;;;10.53;;
17993;SDS011;9122;48.406;9.984;2022-10-20T01:02:00;11.83;;;9.27;;
17993;SDS011;9122;48.406;9.984;2022-10-20T01:04:46;10.83;;;9.73;;
17993;SDS011;9122;48.406;9.984;2022-10-20T01:07:30;11.97;;;9.27;;
17993;SDS011;9122;48.406;9.984;2022-10-20T01:10:15;12.80;;;9.60;;
17993;SDS011;9122;48.406;9.984;2022-10-20T01:13:05;9.60;;;8.60;;
17993;SDS011;9122;48.406;9.984;2022-10-20T01:18:58;10.07;;;9.07;;
17993;SDS011;9122;48.406;9.984;2022-10-20T01:31:52;12.40;;;9.87;;
17993;SDS011;9122;48.406;9.984;2022-10-20T01:35:00;13.97;;;9.93;;
17993;SDS011;9122;48.406;9.984;2022-10-20T01:37:52;12.30;;;10.43;;
17993;SDS011;9122;48.406;9.984;2022-10-20T01:41:41;12.67;;;10.27;;
17993;SDS011;9122;48.406;9.984;2022-10-20T01:44:18;12.60;;;10.13;;
17993;SDS011;9122;48.406;9.984;2022-10-20T01:47:05;12.83;;;10.77;;
17993;SDS011;9122;48.406;9.984;2022-10-20T01:49:52;14.17;;;10.90;;
17993;SDS011;9122;48.406;9.984;2022-10-20T01:52:37;11.17;;;9.77;;
17993;SDS011;9122;48.406;9.984;2022-10-20T01:55:22;16.23;;;11.63;;
17993;SDS011;9122;48.406;9.984;2022-10-20T02:01:11;13.03;;;10.83;;
17993;SDS011;9122;48.406;9.984;2022-10-20T02:04:20;14.87;;;11.10;;
17993;SDS011;9122;48.406;9.984;2022-10-20T02:07:23;14.53;;;11.50;;
17993;SDS011;9122;48.406;9.984;2022-10-20T02:13:29;14.10;;;12.00;;
17993;SDS011;9122;48.406;9.984;2022-10-20T02:16:17;17.60;;;12.23;;
17993;SDS011;9122;48.406;9.984;2022-10-20T02:19:07;15.63;;;12.17;;
17993;SDS011;9122;48.406;9.984;2022-10-20T02:21:53;19.93;;;13.87;;
17993;SDS011;9122;48.406;9.984;2022-10-20T02:24:40;16.53;;;12.37;;
17993;SDS011;9122;48.406;9.984;2022-10-20T02:27:29;18.27;;;13.33;;
17993;SDS011;9122;48.406;9.984;2022-10-20T02:30:18;21.07;;;12.83;;
17993;SDS011;9122;48.406;9.984;2022-10-20T02:33:04;23.37;;;14.33;;
17993;SDS011;9122;48.406;9.984;2022-10-20T02:35:54;17.53;;;14.40;;
17993;SDS011;9122;48.406;9.984;2022-10-20T02:38:40;25.07;;;13.77;;
17993;SDS011;9122;48.406;9.984;2022-10-20T02:41:24;23.47;;;14.13;;
17993;SDS011;9122;48.406;9.984;2022-10-20T02:44:09;22.20;;;16.17;;
17993;SDS011;9122;48.406;9.984;2022-10-20T02:46:53;23.13;;;14.50;;
17993;SDS011;9122;48.406;9.984;2022-10-20T02:49:38;21.50;;;14.63;;
17993;SDS011;9122;48.406;9.984;2022-10-20T02:52:22;21.80;;;15.10;;
17993;SDS011;9122;48.406;9.984;2022-10-20T02:55:07;21.00;;;15.03;;
17993;SDS011;9122;48.406;9.984;2022-10-20T02:57:52;17.50;;;14.50;;
17993;SDS011;9122;48.406;9.984;2022-10-20T03:00:36;17.30;;;14.17;;
17993;SDS011;9122;48.406;9.984;2022-10-20T03:03:21;23.17;;;15.90;;
17993;SDS011;9122;48.406;9.984;2022-10-20T03:06:06;17.77;;;14.13;;
17993;SDS011;9122;48.406;9.984;2022-10-20T03:08:55;22.00;;;14.23;;
17993;SDS011;9122;48.406;9.984;2022-10-20T03:11:39;21.40;;;15.17;;
17993;SDS011;9122;48.406;9.984;2022-10-20T03:14:23;23.60;;;14.17;;
17993;SDS011;9122;48.406;9.984;2022-10-20T03:17:08;19.73;;;14.20;;
17993;SDS011;9122;48.406;9.984;2022-10-20T03:19:52;22.93;;;15.93;;
17993;SDS011;9122;48.406;9.984;2022-10-20T03:22:36;18.73;;;15.10;;
17993;SDS011;9122;48.406;9.984;2022-10-20T03:25:21;21.93;;;15.27;;
17993;SDS011;9122;48.406;9.984;2022-10-20T03:28:05;23.20;;;15.60;;
17993;SDS011;9122;48.406;9.984;2022-10-20T03:30:49;21.80;;;14.53;;
17993;SDS011;9122;48.406;9.984;2022-10-20T03:33:33;21.70;;;15.13;;
17993;SDS011;9122;48.406;9.984;2022-10-20T03:36:21;18.83;;;14.93;;
17993;SDS011;9122;48.406;9.984;2022-10-20T03:39:06;19.47;;;15.23;;
17993;SDS011;9122;48.406;9.984;2022-10-20T03:41:50;20.00;;;14.07;;
17993;SDS011;9122;48.406;9.984;2022-10-20T03:44:35;21.67;;;15.50;;
17993;SDS011;9122;48.406;9.984;2022-10-20T03:47:19;18.63;;;14.70;;
17993;SDS011;9122;48.406;9.984;2022-10-20T03:50:04;20.20;;;14.47;;
17993;SDS011;9122;48.406;9.984;2022-10-20T03:52:52;20.83;;;15.17;;
17993;SDS011;9122;48.406;9.984;2022-10-20T03:55:36;21.27;;;15.53;;
17993;SDS011;9122;48.406;9.984;2022-10-20T03:58:21;18.20;;;14.23;;
17993;SDS011;9122;48.406;9.984;2022-10-20T04:01:06;18.03;;;14.77;;
17993;SDS011;9122;48.406;9.984;2022-10-20T04:03:52;20.63;;;14.27;;
17993;SDS011;9122;48.406;9.984;2022-10-20T04:06:36;18.90;;;14.93;;
17993;SDS011;9122;48.406;9.984;2022-10-20T04:09:21;17.70;;;13.93;;
17993;SDS011;9122;48.406;9.984;2022-10-20T04:12:05;19.30;;;14.20;;
17993;SDS011;9122;48.406;9.984;2022-10-20T04:14:50;19.93;;;14.37;;
17993;SDS011;9122;48.406;9.984;2022-10-20T04:17:35;15.97;;;13.13;;
17993;SDS011;9122;48.406;9.984;2022-10-20T04:20:22;18.53;;;13.97;;
17993;SDS011;9122;48.406;9.984;2022-10-20T04:23:06;19.53;;;13.90;;
17993;SDS011;9122;48.406;9.984;2022-10-20T04:25:50;15.77;;;13.47;;
17993;SDS011;9122;48.406;9.984;2022-10-20T04:28:35;15.97;;;12.70;;
17993;SDS011;9122;48.406;9.984;2022-10-20T04:31:19;17.03;;;13.87;;
17993;SDS011;9122;48.406;9.984;2022-10-20T04:34:03;17.13;;;14.07;;
17993;SDS011;9122;48.406;9.984;2022-10-20T04:36:48;20.00;;;14.23;;
17993;SDS011;9122;48.406;9.984;2022-10-20T04:39:32;19.27;;;13.37;;
17993;SDS011;9122;48.406;9.984;2022-10-20T04:42:16;15.70;;;13.60;;
17993;SDS011;9122;48.406;9.984;2022-10-20T04:45:01;17.47;;;14.57;;
17993;SDS011;9122;48.406;9.984;2022-10-20T04:47:46;17.13;;;14.17;;
17993;SDS011;9122;48.406;9.984;2022-10-20T04:50:30;21.53;;;14.87;;
17993;SDS011;9122;48.406;9.984;2022-10-20T04:53:14;21.27;;;15.23;;
17993;SDS011;9122;48.406;9.984;2022-10-20T04:55:59;21.57;;;14.90;;
17993;SDS011;9122;48.406;9.984;2022-10-20T04:58:50;20.40;;;14.20;;
17993;SDS011;9122;48.406;9.984;2022-10-20T05:01:36;18.70;;;14.53;;
17993;SDS011;9122;48.406;9.984;2022-10-20T05:04:21;19.00;;;15.33;;
17993;SDS011;9122;48.406;9.984;2022-10-20T05:07:06;19.53;;;14.87;;
17993;SDS011;9122;48.406;9.984;2022-10-20T05:09:50;19.93;;;15.13;;
17993;SDS011;9122;48.406;9.984;2022-10-20T05:12:34;18.80;;;14.20;;
17993;SDS011;9122;48.406;9.984;2022-10-20T05:15:19;19.87;;;14.57;;
17993;SDS011;9122;48.406;9.984;2022-10-20T05:18:03;17.40;;;14.57;;
17993;SDS011;9122;48.406;9.984;2022-10-20T05:20:48;19.00;;;14.30;;
17993;SDS011;9122;48.406;9.984;2022-10-20T05:23:32;21.23;;;15.80;;
17993;SDS011;9122;48.406;9.984;2022-10-20T05:26:17;19.47;;;14.40;;
17993;SDS011;9122;48.406;9.984;2022-10-20T05:29:03;21.73;;;15.07;;
17993;SDS011;9122;48.406;9.984;2022-10-20T05:31:49;21.03;;;15.43;;
17993;SDS011;9122;48.406;9.984;2022-10-20T05:34:33;24.47;;;15.80;;
17993;SDS011;9122;48.406;9.984;2022-10-20T05:37:18;23.90;;;16.10;;
17993;SDS011;9122;48.406;9.984;2022-10-20T05:40:02;20.83;;;16.10;;
17993;SDS011;9122;48.406;9.984;2022-10-20T05:42:49;22.67;;;15.70;;
17993;SDS011;9122;48.406;9.984;2022-10-20T05:45:33;21.97;;;15.60;;
17993;SDS011;9122;48.406;9.984;2022-10-20T05:48:18;19.37;;;15.57;;
17993;SDS011;9122;48.406;9.984;2022-10-20T05:51:13;17.47;;;15.20;;
17993;SDS011;9122;48.406;9.984;2022-10-20T05:53:59;18.17;;;14.17;;
17993;SDS011;9122;48.406;9.984;2022-10-20T05:56:44;23.80;;;15.73;;
17993;SDS011;9122;48.406;9.984;2022-10-20T05:59:28;22.17;;;16.33;;
17993;SDS011;9122;48.406;9.984;2022-10-20T06:02:12;20.83;;;15.87;;
17993;SDS011;9122;48.406;9.984;2022-10-20T06:04:57;21.23;;;15.43;;
17993;SDS011;9122;48.406;9.984;2022-10-20T06:07:41;19.33;;;16.07;;
17993;SDS011;9122;48.406;9.984;2022-10-20T06:10:25;23.93;;;16.13;;
17993;SDS011;9122;48.406;9.984;2022-10-20T06:13:09;24.00;;;16.57;;
17993;SDS011;9122;48.406;9.984;2022-10-20T06:15:59;21.53;;;16.70;;
17993;SDS011;9122;48.406;9.984;2022-10-20T06:18:55;23.80;;;16.80;;
17993;SDS011;9122;48.406;9.984;2022-10-20T06:21:40;22.10;;;17.20;;
17993;SDS011;9122;48.406;9.984;2022-10-20T06:24:25;19.90;;;15.13;;
17993;SDS011;9122;48.406;9.984;2022-10-20T06:27:10;21.90;;;16.10;;
17993;SDS011;9122;48.406;9.984;2022-10-20T06:29:54;23.67;;;17.20;;
17993;SDS011;9122;48.406;9.984;2022-10-20T06:32:38;19.33;;;15.80;;
17993;SDS011;9122;48.406;9.984;2022-10-20T06:35:22;19.67;;;15.90;;
17993;SDS011;9122;48.406;9.984;2022-10-20T06:38:07;20.80;;;16.47;;
17993;SDS011;9122;48.406;9.984;2022-10-20T06:40:51;20.43;;;15.77;;
17993;SDS011;9122;48.406;9.984;2022-10-20T06:43:35;23.17;;;17.00;;
17993;SDS011;9122;48.406;9.984;2022-10-20T06:46:20;21.10;;;16.93;;
17993;SDS011;9122;48.406;9.984;2022-10-20T06:49:05;27.60;;;16.87;;
17993;SDS011;9122;48.406;9.984;2022-10-20T06:51:50;25.37;;;17.17;;
17993;SDS011;9122;48.406;9.984;2022-10-20T06:54:34;23.27;;;17.83;;
17993;SDS011;9122;48.406;9.984;2022-10-20T06:57:19;22.73;;;16.17;;
17993;SDS011;9122;48.406;9.984;2022-10-20T07:00:03;24.57;;;16.67;;
17993;SDS011;9122;48.406;9.984;2022-10-20T07:02:48;20.13;;;15.77;;
17993;SDS011;9122;48.406;9.984;2022-10-20T07:05:33;21.37;;;16.40;;
17993;SDS011;9122;48.406;9.984;2022-10-20T07:08:18;23.67;;;17.50;;
17993;SDS011;9122;48.406;9.984;2022-10-20T07:13:50;21.20;;;17.03;;
17993;SDS011;9122;48.406;9.984;2022-10-20T07:16:34;24.67;;;17.27;;
17993;SDS011;9122;48.406;9.984;2022-10-20T07:19:19;20.87;;;16.23;;
17993;SDS011;9122;48.406;9.984;2022-10-20T07:22:04;22.97;;;17.30;;
17993;SDS011;9122;48.406;9.984;2022-10-20T07:24:48;22.33;;;17.67;;
17993;SDS011;9122;48.406;9.984;2022-10-20T07:27:32;22.93;;;16.80;;
17993;SDS011;9122;48.406;9.984;2022-10-20T07:30:17;22.10;;;17.63;;
17993;SDS011;9122;48.406;9.984;2022-10-20T07:33:01;22.77;;;17.23;;
17993;SDS011;9122;48.406;9.984;2022-10-20T07:35:45;22.70;;;16.70;;
17993;SDS011;9122;48.406;9.984;2022-10-20T07:38:30;24.70;;;17.70;;
17993;SDS011;9122;48.406;9.984;2022-10-20T07:41:14;22.60;;;17.57;;
17993;SDS011;9122;48.406;9.984;2022-10-20T07:43:59;28.80;;;17.83;;
17993;SDS011;9122;48.406;9.984;2022-10-20T07:46:44;40.77;;;20.50;;
17993;SDS011;9122;48.406;9.984;2022-10-20T07:49:28;23.77;;;17.03;;
17993;SDS011;9122;48.406;9.984;2022-10-20T07:52:12;27.13;;;17.93;;
17993;SDS011;9122;48.406;9.984;2022-10-20T07:54:58;41.37;;;19.53;;
17993;SDS011;9122;48.406;9.984;2022-10-20T07:57:42;28.97;;;18.57;;
17993;SDS011;9122;48.406;9.984;2022-10-20T08:00:27;31.07;;;19.27;;
17993;SDS011;9122;48.406;9.984;2022-10-20T08:03:12;25.37;;;17.23;;
17993;SDS011;9122;48.406;9.984;2022-10-20T08:05:56;25.43;;;16.97;;
17993;SDS011;9122;48.406;9.984;2022-10-20T08:08:41;25.13;;;16.90;;
17993;SDS011;9122;48.406;9.984;2022-10-20T08:11:25;24.13;;;17.70;;
17993;SDS011;9122;48.406;9.984;2022-10-20T08:14:09;25.60;;;17.47;;
17993;SDS011;9122;48.406;9.984;2022-10-20T08:16:54;26.37;;;17.87;;
17993;SDS011;9122;48.406;9.984;2022-10-20T08:19:38;27.10;;;16.27;;
17993;SDS011;9122;48.406;9.984;2022-10-20T08:22:22;28.90;;;18.60;;
17993;SDS011;9122;48.406;9.984;2022-10-20T08:25:08;27.20;;;16.43;;
17993;SDS011;9122;48.406;9.984;2022-10-20T08:27:57;30.43;;;18.33;;
17993;SDS011;9122;48.406;9.984;2022-10-20T08:30:41;26.77;;;18.20;;
17993;SDS011;9122;48.406;9.984;2022-10-20T08:33:26;25.47;;;17.73;;
17993;SDS011;9122;48.406;9.984;2022-10-20T08:36:11;25.83;;;18.03;;
17993;SDS011;9122;48.406;9.984;2022-10-20T08:38:57;24.70;;;16.60;;
17993;SDS011;9122;48.406;9.984;2022-10-20T08:41:42;27.47;;;18.03;;
17993;SDS011;9122;48.406;9.984;2022-10-20T08:44:30;28.47;;;17.20;;
17993;SDS011;9122;48.406;9.984;2022-10-20T08:47:22;27.30;;;18.03;;
17993;SDS011;9122;48.406;9.984;2022-10-20T08:50:14;23.30;;;16.13;;
17993;SDS011;9122;48.406;9.984;2022-10-20T08:53:00;26.53;;;17.33;;
17993;SDS011;9122;48.406;9.984;2022-10-20T08:55:44;23.17;;;16.30;;
17993;SDS011;9122;48.406;9.984;2022-10-20T08:58:29;24.60;;;17.10;;
17993;SDS011;9122;48.406;9.984;2022-10-20T09:01:24;22.83;;;17.10;;
17993;SDS011;9122;48.406;9.984;2022-10-20T09:07:08;24.60;;;16.57;;
17993;SDS011;9122;48.406;9.984;2022-10-20T09:12:58;27.90;;;16.93;;
17993;SDS011;9122;48.406;9.984;2022-10-20T09:15:43;21.03;;;16.63;;
17993;SDS011;9122;48.406;9.984;2022-10-20T09:18:28;26.57;;;16.53;;
17993;SDS011;9122;48.406;9.984;2022-10-20T09:21:17;25.37;;;16.57;;
17993;SDS011;9122;48.406;9.984;2022-10-20T09:24:05;21.83;;;16.07;;
17993;SDS011;9122;48.406;9.984;2022-10-20T09:26:50;27.33;;;16.60;;
17993;SDS011;9122;48.406;9.984;2022-10-20T09:29:36;25.87;;;16.40;;
17993;SDS011;9122;48.406;9.984;2022-10-20T09:32:32;29.03;;;16.67;;
17993;SDS011;9122;48.406;9.984;2022-10-20T09:44:01;26.60;;;16.80;;
17993;SDS011;9122;48.406;9.984;2022-10-20T09:46:51;26.70;;;17.60;;
17993;SDS011;9122;48.406;9.984;2022-10-20T09:49:37;25.23;;;17.40;;
17993;SDS011;9122;48.406;9.984;2022-10-20T09:52:22;26.43;;;17.57;;
17993;SDS011;9122;48.406;9.984;2022-10-20T09:55:26;34.93;;;20.63;;
17993;SDS011;9122;48.406;9.984;2022-10-20T09:58:15;45.00;;;23.47;;
17993;SDS011;9122;48.406;9.984;2022-10-20T10:01:16;44.30;;;24.60;;
17993;SDS011;9122;48.406;9.984;2022-10-20T10:04:01;45.30;;;28.27;;
17993;SDS011;9122;48.406;9.984;2022-10-20T10:06:45;38.87;;;25.50;;
17993;SDS011;9122;48.406;9.984;2022-10-20T10:09:32;54.90;;;29.70;;
17993;SDS011;9122;48.406;9.984;2022-10-20T10:12:19;33.93;;;21.37;;
17993;SDS011;9122;48.406;9.984;2022-10-20T10:15:04;40.43;;;23.87;;
17993;SDS011;9122;48.406;9.984;2022-10-20T10:17:51;37.93;;;23.20;;
17993;SDS011;9122;48.406;9.984;2022-10-20T10:20:37;44.30;;;25.70;;
17993;SDS011;9122;48.406;9.984;2022-10-20T10:23:26;52.67;;;33.10;;
17993;SDS011;9122;48.406;9.984;2022-10-20T10:26:33;53.43;;;29.50;;
17993;SDS011;9122;48.406;9.984;2022-10-20T10:29:30;48.27;;;29.97;;
17993;SDS011;9122;48.406;9.984;2022-10-20T10:32:23;48.93;;;27.27;;
17993;SDS011;9122;48.406;9.984;2022-10-20T10:38:08;39.17;;;25.97;;
17993;SDS011;9122;48.406;9.984;2022-10-20T10:52:45;44.97;;;26.17;;
17993;SDS011;9122;48.406;9.984;2022-10-20T10:55:46;28.77;;;20.07;;
17993;SDS011;9122;48.406;9.984;2022-10-20T11:26:24;26.50;;;16.87;;
17993;SDS011;9122;48.406;9.984;2022-10-20T11:32:25;26.27;;;17.43;;
17993;SDS011;9122;48.406;9.984;2022-10-20T11:41:39;25.53;;;16.83;;
17993;SDS011;9122;48.406;9.984;2022-10-20T11:44:32;21.40;;;15.53;;
17993;SDS011;9122;48.406;9.984;2022-10-20T11:47:33;18.83;;;14.37;;
17993;SDS011;9122;48.406;9.984;2022-10-20T11:50:21;16.07;;;12.73;;
17993;SDS011;9122;48.406;9.984;2022-10-20T12:05:40;15.53;;;12.40;;
17993;SDS011;9122;48.406;9.984;2022-10-20T12:08:47;16.83;;;12.90;;
17993;SDS011;9122;48.406;9.984;2022-10-20T12:14:25;16.43;;;13.20;;
17993;SDS011;9122;48.406;9.984;2022-10-20T12:17:24;13.93;;;11.03;;
17993;SDS011;9122;48.406;9.984;2022-10-20T12:23:04;16.70;;;12.27;;
17993;SDS011;9122;48.406;9.984;2022-10-20T12:25:49;16.13;;;12.53;;
17993;SDS011;9122;48.406;9.984;2022-10-20T12:28:38;16.47;;;12.50;;
17993;SDS011;9122;48.406;9.984;2022-10-20T12:31:23;18.13;;;13.40;;
17993;SDS011;9122;48.406;9.984;2022-10-20T12:34:28;16.37;;;12.27;;
17993;SDS011;9122;48.406;9.984;2022-10-20T12:37:26;14.53;;;11.93;;
17993;SDS011;9122;48.406;9.984;2022-10-20T12:40:19;17.37;;;11.80;;
17993;SDS011;9122;48.406;9.984;2022-10-20T12:46:17;14.87;;;11.33;;
17993;SDS011;9122;48.406;9.984;2022-10-20T12:49:05;13.43;;;11.50;;
17993;SDS011;9122;48.406;9.984;2022-10-20T12:51:50;13.70;;;11.90;;
17993;SDS011;9122;48.406;9.984;2022-10-20T12:54:38;16.43;;;12.00;;
17993;SDS011;9122;48.406;9.984;2022-10-20T13:03:02;16.80;;;12.23;;
17993;SDS011;9122;48.406;9.984;2022-10-20T13:09:19;14.73;;;12.57;;
17993;SDS011;9122;48.406;9.984;2022-10-20T13:12:21;16.30;;;12.67;;
17993;SDS011;9122;48.406;9.984;2022-10-20T13:15:09;14.17;;;12.37;;
17993;SDS011;9122;48.406;9.984;2022-10-20T13:17:58;17.37;;;12.17;;
17993;SDS011;9122;48.406;9.984;2022-10-20T13:24:12;15.07;;;11.77;;
17993;SDS011;9122;48.406;9.984;2022-10-20T13:27:00;15.90;;;11.77;;
17993;SDS011;9122;48.406;9.984;2022-10-20T13:29:46;19.13;;;12.60;;
17993;SDS011;9122;48.406;9.984;2022-10-20T13:35:29;17.03;;;11.97;;
17993;SDS011;9122;48.406;9.984;2022-10-20T13:38:25;17.43;;;13.17;;
17993;SDS011;9122;48.406;9.984;2022-10-20T13:41:37;16.10;;;13.23;;
17993;SDS011;9122;48.406;9.984;2022-10-20T13:47:46;16.23;;;13.17;;
17993;SDS011;9122;48.406;9.984;2022-10-20T13:50:41;16.43;;;12.97;;
17993;SDS011;9122;48.406;9.984;2022-10-20T13:53:33;18.37;;;12.87;;
17993;SDS011;9122;48.406;9.984;2022-10-20T13:56:38;14.30;;;12.73;;
17993;SDS011;9122;48.406;9.984;2022-10-20T13:59:29;16.83;;;12.97;;
17993;SDS011;9122;48.406;9.984;2022-10-20T14:02:21;18.53;;;12.73;;
17993;SDS011;9122;48.406;9.984;2022-10-20T14:05:12;16.17;;;12.73;;
17993;SDS011;9122;48.406;9.984;2022-10-20T14:07:58;16.67;;;12.70;;
17993;SDS011;9122;48.406;9.984;2022-10-20T14:10:51;15.10;;;13.47;;
17993;SDS011;9122;48.406;9.984;2022-10-20T14:13:37;15.80;;;11.70;;
17993;SDS011;9122;48.406;9.984;2022-10-20T14:16:23;15.90;;;12.47;;
17993;SDS011;9122;48.406;9.984;2022-10-20T14:19:11;14.57;;;12.37;;
17993;SDS011;9122;48.406;9.984;2022-10-20T14:21:57;15.83;;;12.50;;
17993;SDS011;9122;48.406;9.984;2022-10-20T14:25:14;16.97;;;13.30;;
17993;SDS011;9122;48.406;9.984;2022-10-20T14:27:59;19.27;;;13.03;;
17993;SDS011;9122;48.406;9.984;2022-10-20T14:30:45;19.07;;;13.40;;
17993;SDS011;9122;48.406;9.984;2022-10-20T14:33:32;16.53;;;13.73;;
17993;SDS011;9122;48.406;9.984;2022-10-20T14:36:20;19.33;;;13.20;;
17993;SDS011;9122;48.406;9.984;2022-10-20T14:42:26;16.17;;;13.17;;
17993;SDS011;9122;48.406;9.984;2022-10-20T14:45:17;18.37;;;14.20;;
17993;SDS011;9122;48.406;9.984;2022-10-20T14:48:05;17.67;;;13.23;;
17993;SDS011;9122;48.406;9.984;2022-10-20T14:50:55;15.37;;;12.87;;
17993;SDS011;9122;48.406;9.984;2022-10-20T14:53:40;19.67;;;13.53;;
17993;SDS011;9122;48.406;9.984;2022-10-20T14:56:24;18.00;;;12.50;;
17993;SDS011;9122;48.406;9.984;2022-10-20T14:59:15;15.37;;;12.37;;
17993;SDS011;9122;48.406;9.984;2022-10-20T15:05:20;14.47;;;12.43;;
17993;SDS011;9122;48.406;9.984;2022-10-20T15:11:21;16.93;;;13.10;;
17993;SDS011;9122;48.406;9.984;2022-10-20T15:14:11;16.93;;;12.93;;
17993;SDS011;9122;48.406;9.984;2022-10-20T15:16:58;17.87;;;14.53;;
17993;SDS011;9122;48.406;9.984;2022-10-20T15:19:43;19.60;;;13.83;;
17993;SDS011;9122;48.406;9.984;2022-10-20T15:22:27;17.80;;;13.10;;
17993;SDS011;9122;48.406;9.984;2022-10-20T15:25:11;18.03;;;13.67;;
17993;SDS011;9122;48.406;9.984;2022-10-20T15:27:56;16.87;;;13.77;;
17993;SDS011;9122;48.406;9.984;2022-10-20T15:30:41;17.53;;;13.70;;
17993;SDS011;9122;48.406;9.984;2022-10-20T15:33:26;18.93;;;14.43;;
17993;SDS011;9122;48.406;9.984;2022-10-20T15:36:14;18.83;;;14.47;;
17993;SDS011;9122;48.406;9.984;2022-10-20T15:39:04;16.87;;;14.30;;
17993;SDS011;9122;48.406;9.984;2022-10-20T15:41:51;16.70;;;13.00;;
17993;SDS011;9122;48.406;9.984;2022-10-20T15:44:35;17.80;;;14.07;;
17993;SDS011;9122;48.406;9.984;2022-10-20T15:47:20;17.97;;;12.90;;
17993;SDS011;9122;48.406;9.984;2022-10-20T15:50:05;17.27;;;14.47;;
17993;SDS011;9122;48.406;9.984;2022-10-20T15:52:49;17.47;;;14.03;;
17993;SDS011;9122;48.406;9.984;2022-10-20T15:55:34;23.37;;;14.93;;
17993;SDS011;9122;48.406;9.984;2022-10-20T15:58:21;18.97;;;14.43;;
17993;SDS011;9122;48.406;9.984;2022-10-20T16:01:06;22.90;;;15.47;;
17993;SDS011;9122;48.406;9.984;2022-10-20T16:03:52;18.33;;;14.20;;
17993;SDS011;9122;48.406;9.984;2022-10-20T16:06:38;17.53;;;13.57;;
17993;SDS011;9122;48.406;9.984;2022-10-20T16:09:22;20.20;;;14.40;;
17993;SDS011;9122;48.406;9.984;2022-10-20T16:12:06;16.73;;;13.80;;
17993;SDS011;9122;48.406;9.984;2022-10-20T16:14:52;18.60;;;14.63;;
17993;SDS011;9122;48.406;9.984;2022-10-20T16:17:39;21.50;;;15.13;;
17993;SDS011;9122;48.406;9.984;2022-10-20T16:20:24;17.77;;;14.47;;
17993;SDS011;9122;48.406;9.984;2022-10-20T16:23:09;15.90;;;14.13;;
17993;SDS011;9122;48.406;9.984;2022-10-20T16:25:53;18.87;;;15.43;;
17993;SDS011;9122;48.406;9.984;2022-10-20T16:28:37;19.00;;;15.07;;
17993;SDS011;9122;48.406;9.984;2022-10-20T16:31:22;20.57;;;14.37;;
17993;SDS011;9122;48.406;9.984;2022-10-20T16:34:06;21.33;;;15.40;;
17993;SDS011;9122;48.406;9.984;2022-10-20T16:36:51;21.40;;;14.53;;
17993;SDS011;9122;48.406;9.984;2022-10-20T16:39:35;19.33;;;15.27;;
17993;SDS011;9122;48.406;9.984;2022-10-20T16:42:19;20.30;;;14.40;;
17993;SDS011;9122;48.406;9.984;2022-10-20T16:45:04;19.93;;;14.00;;
17993;SDS011;9122;48.406;9.984;2022-10-20T16:47:49;19.97;;;15.13;;
17993;SDS011;9122;48.406;9.984;2022-10-20T16:50:33;18.13;;;14.20;;
17993;SDS011;9122;48.406;9.984;2022-10-20T16:53:18;19.90;;;14.83;;
17993;SDS011;9122;48.406;9.984;2022-10-20T16:56:03;20.40;;;14.50;;
17993;SDS011;9122;48.406;9.984;2022-10-20T16:58:47;17.27;;;14.27;;
17993;SDS011;9122;48.406;9.984;2022-10-20T17:01:32;18.53;;;15.47;;
17993;SDS011;9122;48.406;9.984;2022-10-20T17:04:17;19.80;;;14.40;;
17993;SDS011;9122;48.406;9.984;2022-10-20T17:07:02;17.47;;;13.67;;
17993;SDS011;9122;48.406;9.984;2022-10-20T17:09:46;19.77;;;15.10;;
17993;SDS011;9122;48.406;9.984;2022-10-20T17:12:31;20.03;;;14.53;;
17993;SDS011;9122;48.406;9.984;2022-10-20T17:15:15;23.60;;;15.60;;
17993;SDS011;9122;48.406;9.984;2022-10-20T17:18:00;19.93;;;15.87;;
17993;SDS011;9122;48.406;9.984;2022-10-20T17:20:44;17.47;;;14.50;;
17993;SDS011;9122;48.406;9.984;2022-10-20T17:23:33;20.97;;;16.17;;
17993;SDS011;9122;48.406;9.984;2022-10-20T17:26:20;18.43;;;15.20;;
17993;SDS011;9122;48.406;9.984;2022-10-20T17:29:06;23.60;;;15.70;;
17993;SDS011;9122;48.406;9.984;2022-10-20T17:31:52;20.60;;;16.80;;
17993;SDS011;9122;48.406;9.984;2022-10-20T17:34:36;21.30;;;16.30;;
17993;SDS011;9122;48.406;9.984;2022-10-20T17:37:21;17.57;;;14.60;;
17993;SDS011;9122;48.406;9.984;2022-10-20T17:40:05;17.43;;;14.73;;
17993;SDS011;9122;48.406;9.984;2022-10-20T17:42:50;20.30;;;16.37;;
17993;SDS011;9122;48.406;9.984;2022-10-20T17:45:34;23.40;;;16.47;;
17993;SDS011;9122;48.406;9.984;2022-10-20T17:48:20;24.53;;;17.20;;
17993;SDS011;9122;48.406;9.984;2022-10-20T17:51:05;21.57;;;17.37;;
17993;SDS011;9122;48.406;9.984;2022-10-20T17:53:53;23.60;;;16.77;;
17993;SDS011;9122;48.406;9.984;2022-10-20T17:56:40;21.87;;;16.30;;
17993;SDS011;9122;48.406;9.984;2022-10-20T17:59:24;20.50;;;15.73;;
17993;SDS011;9122;48.406;9.984;2022-10-20T18:02:08;20.30;;;16.50;;
17993;SDS011;9122;48.406;9.984;2022-10-20T18:04:53;21.50;;;17.07;;
17993;SDS011;9122;48.406;9.984;2022-10-20T18:07:38;28.03;;;20.87;;
17993;SDS011;9122;48.406;9.984;2022-10-20T18:10:22;20.33;;;16.77;;
17993;SDS011;9122;48.406;9.984;2022-10-20T18:13:07;20.87;;;16.37;;
17993;SDS011;9122;48.406;9.984;2022-10-20T18:15:52;24.60;;;16.20;;
17993;SDS011;9122;48.406;9.984;2022-10-20T18:18:36;23.17;;;17.30;;
17993;SDS011;9122;48.406;9.984;2022-10-20T18:21:22;25.60;;;16.60;;
17993;SDS011;9122;48.406;9.984;2022-10-20T18:24:07;21.90;;;17.83;;
17993;SDS011;9122;48.406;9.984;2022-10-20T18:26:53;23.33;;;16.10;;
17993;SDS011;9122;48.406;9.984;2022-10-20T18:29:38;20.30;;;14.93;;
17993;SDS011;9122;48.406;9.984;2022-10-20T18:32:23;21.27;;;15.47;;
17993;SDS011;9122;48.406;9.984;2022-10-20T18:35:07;26.30;;;16.67;;
17993;SDS011;9122;48.406;9.984;2022-10-20T18:37:52;24.73;;;16.90;;
17993;SDS011;9122;48.406;9.984;2022-10-20T18:40:40;24.07;;;16.17;;
17993;SDS011;9122;48.406;9.984;2022-10-20T18:43:25;21.47;;;16.43;;
17993;SDS011;9122;48.406;9.984;2022-10-20T18:46:09;22.53;;;16.70;;
17993;SDS011;9122;48.406;9.984;2022-10-20T18:48:54;22.40;;;16.63;;
17993;SDS011;9122;48.406;9.984;2022-10-20T18:51:40;18.93;;;15.00;;